Time;durP1;ratioP1;P1;durP2;ratioP2;P2;SDS_P1;SDS_P2;PMS_P1;PMS_P2;Temp;Humidity;BMP_temperature;BMP_pressure;BME280_temperature;BME280_humidity;BME280_pressure;Samples;Min_cycle;Max_cycle;Signal;HPM_P1;HPM_P2
2022/02/22 00:00:28;;;;;;;11.65;2.17;;;;;;;14.20;45.11;101533.72;5052939;28;20070;-63
2022/02/22 00:02:53;;;;;;;19.20;3.40;;;;;;;14.16;45.22;101534.97;5054375;28;20017;-63
2022/02/22 00:05:19;;;;;;;12.20;2.20;;;;;;;14.16;45.20;101543.91;5054198;28;20021;-63
2022/02/22 00:07:44;;;;;;;16.55;3.13;;;;;;;14.14;44.64;101551.28;5069807;28;20040;-63
2022/02/22 00:10:11;;;;;;;18.30;2.78;;;;;;;14.14;45.61;101561.22;5053280;28;20029;-63
2022/02/22 00:12:36;;;;;;;16.80;2.15;;;;;;;14.11;45.80;101562.34;5053330;28;20492;-63
2022/02/22 00:15:02;;;;;;;15.70;3.53;;;;;;;14.09;44.96;101568.84;5054045;28;20032;-63
2022/02/22 00:17:28;;;;;;;13.10;2.47;;;;;;;14.09;45.60;101564.31;5053939;28;20028;-62
2022/02/22 00:19:54;;;;;;;18.48;2.55;;;;;;;14.11;45.42;101569.56;5053537;28;20437;-63
2022/02/22 00:22:20;;;;;;;16.63;2.60;;;;;;;14.11;45.54;101575.81;5053979;28;20021;-63
2022/02/22 00:24:45;;;;;;;24.00;2.88;;;;;;;14.05;45.05;101568.25;5053672;28;20073;-63
2022/02/22 00:27:11;;;;;;;25.02;2.55;;;;;;;14.07;44.92;101577.03;5052940;28;20032;-63
2022/02/22 00:29:37;;;;;;;15.32;3.17;;;;;;;14.07;45.49;101585.13;5054099;28;20107;-63
2022/02/22 00:32:03;;;;;;;16.98;3.83;;;;;;;14.06;46.17;101585.28;5053917;28;20052;-63
2022/02/22 00:34:28;;;;;;;30.50;2.92;;;;;;;13.90;45.44;101572.28;5054282;28;20029;-63
2022/02/22 00:36:54;;;;;;;19.50;4.57;;;;;;;14.03;45.84;101581.00;5053975;28;20028;-63
2022/02/22 00:39:19;;;;;;;21.00;3.15;;;;;;;14.01;45.82;101588.38;5053942;28;20048;-62
2022/02/22 00:41:44;;;;;;;27.50;2.75;;;;;;;14.02;45.22;101596.31;5053641;28;20028;-63
2022/02/22 00:44:09;;;;;;;22.27;2.83;;;;;;;14.02;45.98;101592.75;5053593;28;20025;-63
2022/02/22 00:46:35;;;;;;;20.88;2.75;;;;;;;14.01;45.80;101599.16;5053650;28;20162;-63
2022/02/22 00:49:00;;;;;;;13.93;2.00;;;;;;;13.94;45.43;101588.03;5053944;28;20044;-63
2022/02/22 00:51:26;;;;;;;15.15;2.38;;;;;;;13.96;46.19;101586.06;5054058;28;20059;-62
2022/02/22 00:53:51;;;;;;;24.75;3.22;;;;;;;13.93;45.56;101586.31;5053746;28;20025;-63
2022/02/22 00:56:16;;;;;;;22.25;3.10;;;;;;;13.95;45.60;101596.97;5069679;28;20021;-63
2022/02/22 00:58:42;;;;;;;16.95;2.38;;;;;;;13.93;45.39;101602.47;5053632;28;20025;-63
2022/02/22 01:01:10;;;;;;;10.90;2.63;;;;;;;13.93;45.21;101612.44;5053563;28;20025;-62
2022/02/22 01:03:35;;;;;;;15.40;2.30;;;;;;;13.88;45.03;101609.25;5053853;28;20106;-63
2022/02/22 01:06:01;;;;;;;13.20;2.72;;;;;;;13.83;45.50;101606.09;5053446;28;20490;-63
2022/02/22 01:08:26;;;;;;;20.48;2.60;;;;;;;13.79;44.80;101615.44;5053866;28;20021;-63
2022/02/22 01:10:51;;;;;;;16.10;3.05;;;;;;;13.76;45.43;101618.41;5052614;28;20025;-63
2022/02/22 01:13:17;;;;;;;18.80;3.05;;;;;;;13.68;45.33;101610.13;5052341;28;20409;-63
2022/02/22 01:15:43;;;;;;;14.82;2.38;;;;;;;13.71;46.20;101617.91;5053414;28;20448;-63
2022/02/22 01:18:08;;;;;;;20.75;2.63;;;;;;;13.65;45.18;101613.06;5053699;28;20025;-62
2022/02/22 01:20:34;;;;;;;21.33;2.90;;;;;;;13.64;45.63;101619.41;5053480;28;20102;-63
2022/02/22 01:22:59;;;;;;;19.40;2.83;;;;;;;13.65;46.29;101629.22;5053728;28;20127;-63
2022/02/22 01:25:27;;;;;;;21.55;2.65;;;;;;;13.64;45.54;101633.75;5052815;28;20085;-62
2022/02/22 01:27:54;;;;;;;20.98;2.42;;;;;;;13.62;45.10;101641.09;5036306;28;20471;-62
2022/02/22 01:30:19;;;;;;;28.00;3.75;;;;;;;13.61;45.53;101646.59;5054013;28;20032;-63
2022/02/22 01:32:45;;;;;;;23.35;2.53;;;;;;;13.59;45.99;101632.41;5057405;28;20143;-62
2022/02/22 01:35:10;;;;;;;14.20;2.80;;;;;;;13.55;45.87;101639.03;5057405;28;20043;-63
2022/02/22 01:37:36;;;;;;;18.85;2.30;;;;;;;13.52;46.48;101652.75;5057134;28;20498;-63
2022/02/22 01:40:02;;;;;;;26.48;5.10;;;;;;;13.49;45.56;101650.31;5056981;28;20028;-62
2022/02/22 01:42:27;;;;;;;18.85;2.78;;;;;;;13.47;46.18;101649.59;5055935;28;20490;-63
2022/02/22 01:44:53;;;;;;;15.13;3.30;;;;;;;13.46;45.75;101646.03;5057008;28;20060;-63
2022/02/22 01:47:18;;;;;;;14.07;2.30;;;;;;;13.46;45.60;101650.56;5055831;28;20474;-62
2022/02/22 01:49:45;;;;;;;11.50;2.25;;;;;;;13.43;46.09;101648.16;5056923;28;20029;-63
2022/02/22 01:52:10;;;;;;;19.20;2.08;;;;;;;13.37;45.93;101647.66;5056928;28;20024;-63
2022/02/22 01:54:37;;;;;;;29.33;2.70;;;;;;;13.39;46.24;101672.63;5056712;28;20044;-63
2022/02/22 01:57:02;;;;;;;20.10;4.20;;;;;;;13.36;46.43;101672.88;5055929;28;20490;-63
2022/02/22 01:59:28;;;;;;;20.25;2.38;;;;;;;13.32;46.05;101667.84;5056938;28;20017;-62
2022/02/22 02:01:53;;;;;;;17.60;2.55;;;;;;;13.33;45.70;101662.34;5056615;28;20032;-63
2022/02/22 02:04:19;;;;;;;17.00;3.22;;;;;;;13.31;46.09;101647.31;5056804;28;20021;-63
2022/02/22 02:06:45;;;;;;;17.52;3.45;;;;;;;13.32;45.38;101663.31;5055239;28;20021;-63
2022/02/22 02:09:11;;;;;;;22.23;2.85;;;;;;;13.32;46.00;101660.63;5054998;28;20021;-62
2022/02/22 02:11:48;;;;;;;10.82;1.95;;;;;;;13.33;46.17;101653.44;5056379;28;20470;-63
2022/02/22 02:14:14;;;;;;;18.60;2.47;;;;;;;13.25;47.01;101632.53;5054620;28;20094;-62
2022/02/22 02:16:40;;;;;;;18.02;2.40;;;;;;;13.32;46.29;101646.31;5050066;28;20048;-63
2022/02/22 02:19:10;;;;;;;18.60;1.95;;;;;;;13.31;45.60;101658.09;5054325;28;20033;-62
2022/02/22 02:21:37;;;;;;;8.73;2.38;;;;;;;13.30;45.75;101654.53;5056416;28;20021;-63
2022/02/22 03:44:49;;;;;;;20.15;2.60;;;;;;;13.34;44.61;101680.19;4191338;28;20083;-63
2022/02/22 03:47:14;;;;;;;22.02;3.22;;;;;;;13.26;45.75;101688.03;5054737;28;20056;-63
2022/02/22 03:49:39;;;;;;;10.70;2.38;;;;;;;13.19;45.78;101697.59;5036629;28;20021;-63
2022/02/22 03:52:05;;;;;;;26.45;3.22;;;;;;;13.07;45.22;101693.22;5054703;28;20040;-63
2022/02/22 03:54:30;;;;;;;21.88;2.65;;;;;;;13.04;46.20;101704.19;5054951;28;20025;-63
2022/02/22 04:10:23;;;;;;;9.02;2.53;;;;;;;12.75;46.64;101693.09;5054918;28;20121;-63
2022/02/22 04:12:49;;;;;;;14.13;1.88;;;;;;;12.76;46.02;101683.16;5054113;28;20072;-63
2022/02/22 04:15:15;;;;;;;15.07;1.95;;;;;;;12.68;46.70;101670.34;5069817;28;20036;-62
2022/02/22 04:17:41;;;;;;;13.38;1.50;;;;;;;12.73;46.72;101689.66;5069543;28;20041;-62
2022/02/22 04:20:08;;;;;;;14.52;2.25;;;;;;;12.71;46.42;101688.91;5054275;28;20053;-62
2022/02/22 04:22:33;;;;;;;11.10;2.45;;;;;;;12.70;45.97;101702.50;5053197;28;20029;-63
2022/02/22 04:24:58;;;;;;;16.52;2.22;;;;;;;12.68;46.16;101699.91;5053970;28;20394;-62
2022/02/22 04:27:24;;;;;;;18.67;2.53;;;;;;;12.68;45.83;101707.13;5054085;28;20056;-63
2022/02/22 04:29:49;;;;;;;22.20;3.45;;;;;;;12.68;46.63;101702.59;5052910;28;20060;-62
2022/02/22 04:32:14;;;;;;;14.95;2.38;;;;;;;12.68;46.44;101701.75;5054346;28;20371;-63
2022/02/22 04:34:40;;;;;;;11.90;1.92;;;;;;;12.67;46.53;101706.25;5054034;28;20033;-63
2022/02/22 04:37:05;;;;;;;14.27;2.13;;;;;;;12.66;46.18;101707.25;5069127;28;20397;-63
2022/02/22 04:39:31;;;;;;;18.52;2.55;;;;;;;12.65;46.96;101712.72;5053949;28;20029;-63
2022/02/22 04:41:56;;;;;;;15.68;2.65;;;;;;;12.66;46.90;101714.47;5053550;28;20067;-62
2022/02/22 04:44:21;;;;;;;14.57;1.75;;;;;;;12.64;47.12;101706.53;5053682;28;20048;-63
2022/02/22 04:46:47;;;;;;;14.77;2.30;;;;;;;12.61;46.16;101701.38;5053651;28;20391;-63
2022/02/22 04:49:12;;;;;;;12.70;1.85;;;;;;;12.62;46.72;101702.22;5052905;28;20104;-62
2022/02/22 04:51:40;;;;;;;7.72;2.22;;;;;;;12.59;46.04;101697.94;5052565;28;20028;-62
2022/02/22 04:54:06;;;;;;;12.93;2.22;;;;;;;12.59;47.02;101702.50;5053617;28;20077;-62
2022/02/22 04:56:32;;;;;;;13.25;2.28;;;;;;;12.57;47.37;101704.41;5053726;28;20021;-62
2022/02/22 04:58:58;;;;;;;16.10;3.25;;;;;;;12.53;46.92;101703.84;5035958;28;20033;-62
2022/02/22 05:01:23;;;;;;;14.25;2.38;;;;;;;12.53;47.25;101700.28;5053596;28;20029;-62
2022/02/22 05:03:48;;;;;;;14.43;2.53;;;;;;;12.50;46.81;101705.88;5053586;28;20055;-63
2022/02/22 05:06:14;;;;;;;16.50;2.55;;;;;;;12.53;46.91;101709.22;5057030;28;20482;-63
2022/02/22 05:08:40;;;;;;;18.30;2.85;;;;;;;12.51;46.86;101716.50;5057684;28;20032;-62
2022/02/22 05:11:06;;;;;;;14.45;3.25;;;;;;;12.52;46.53;101709.31;5057634;28;20036;-63
2022/02/22 05:13:31;;;;;;;10.32;2.10;;;;;;;12.51;46.96;101719.19;5057800;28;20036;-62
2022/02/22 05:15:56;;;;;;;13.13;2.42;;;;;;;12.46;47.18;101713.31;5057514;28;20107;-62
2022/02/22 05:18:22;;;;;;;13.32;2.42;;;;;;;12.49;46.53;101728.34;5057791;28;20060;-63
2022/02/22 05:20:56;;;;;;;10.48;2.60;;;;;;;12.48;46.59;101730.19;5057571;28;20021;-62
2022/02/22 05:23:23;;;;;;;17.77;3.60;;;;;;;12.46;46.07;101728.59;5057652;28;20440;-62
2022/02/22 05:25:49;;;;;;;30.52;2.85;;;;;;;12.46;46.08;101733.97;5057340;28;20043;-64
2022/02/22 05:28:14;;;;;;;16.63;4.40;;;;;;;12.44;46.96;101743.97;5057164;28;20020;-63
2022/02/22 05:30:40;;;;;;;24.10;3.13;;;;;;;12.43;47.08;101739.56;5057210;28;20025;-62
2022/02/22 05:33:05;;;;;;;17.02;2.33;;;;;;;12.43;46.21;101739.56;5056156;28;20033;-62
2022/02/22 05:35:31;;;;;;;15.15;3.08;;;;;;;12.42;46.29;101740.56;5057129;28;20100;-62
2022/02/22 05:37:56;;;;;;;16.33;2.40;;;;;;;12.37;46.68;101742.75;5057300;28;20037;-62
2022/02/22 05:40:21;;;;;;;9.85;2.45;;;;;;;12.38;46.06;101741.75;5056993;28;20087;-63
2022/02/22 05:42:47;;;;;;;8.75;2.47;;;;;;;12.36;46.23;101744.59;5057118;28;20036;-63
2022/02/22 05:45:12;;;;;;;13.93;2.55;;;;;;;12.34;46.68;101746.50;5056880;28;20510;-62
2022/02/22 05:47:37;;;;;;;11.55;2.17;;;;;;;12.30;46.81;101754.94;5057073;28;20391;-63
2022/02/22 05:50:03;;;;;;;16.58;3.65;;;;;;;12.33;46.81;101769.00;5056993;28;20107;-62
2022/02/22 05:52:28;;;;;;;17.95;2.30;;;;;;;12.31;47.06;101762.84;5056897;28;20385;-62
2022/02/22 05:54:54;;;;;;;13.63;2.80;;;;;;;12.30;46.14;101765.69;5038903;28;20032;-62
2022/02/22 05:57:19;;;;;;;15.90;2.80;;;;;;;12.28;46.34;101768.50;5056719;28;20064;-62
2022/02/22 05:59:45;;;;;;;11.60;2.28;;;;;;;12.26;46.78;101771.28;5055424;28;20394;-62
2022/02/22 06:02:10;;;;;;;12.07;2.42;;;;;;;12.25;46.80;101769.56;5056582;28;20025;-62
2022/02/22 06:04:36;;;;;;;16.05;2.42;;;;;;;12.23;45.89;101768.81;5056376;28;20097;-62
2022/02/22 06:07:01;;;;;;;13.85;2.92;;;;;;;12.24;46.47;101770.56;5056428;28;20041;-62
2022/02/22 06:09:27;;;;;;;7.82;2.05;;;;;;;12.24;46.64;101778.63;5056683;28;20047;-63
2022/02/22 06:11:52;;;;;;;9.45;1.95;;;;;;;12.20;46.85;101763.69;5056300;28;20035;-62
2022/02/22 06:14:17;;;;;;;19.70;2.80;;;;;;;12.23;46.34;101771.50;5056790;28;20117;-63
2022/02/22 06:16:43;;;;;;;13.13;2.33;;;;;;;12.20;46.41;101761.00;5056396;28;20475;-62
2022/02/22 06:19:08;;;;;;;13.00;2.90;;;;;;;12.21;46.26;101773.47;5056336;28;20459;-62
2022/02/22 06:21:33;;;;;;;9.15;2.13;;;;;;;12.23;46.63;101776.03;5056283;28;20083;-63
2022/02/22 06:23:59;;;;;;;16.45;3.08;;;;;;;12.24;47.13;101772.38;5056109;28;20025;-62
2022/02/22 06:26:24;;;;;;;10.27;2.75;;;;;;;12.26;46.63;101771.28;5056149;28;20041;-63
2022/02/22 06:28:52;;;;;;;9.15;2.42;;;;;;;12.26;46.74;101765.91;5056222;28;20040;-62
2022/02/22 06:31:17;;;;;;;12.73;2.20;;;;;;;12.27;46.87;101770.31;5056160;28;20394;-62
2022/02/22 06:33:43;;;;;;;12.98;2.08;;;;;;;12.31;46.99;101772.78;5056341;28;20112;-62
2022/02/22 06:36:08;;;;;;;6.25;2.10;;;;;;;12.32;47.25;101779.84;5054959;28;20017;-62
2022/02/22 06:38:34;;;;;;;9.00;2.08;;;;;;;12.32;47.18;101777.16;5054713;28;20463;-62
2022/02/22 06:40:59;;;;;;;8.43;1.42;;;;;;;12.33;46.31;101784.25;5055979;28;20029;-62
2022/02/22 06:43:25;;;;;;;10.25;1.52;;;;;;;12.34;47.22;101778.75;5054709;28;20478;-62
2022/02/22 06:45:50;;;;;;;7.70;1.65;;;;;;;12.37;46.87;101778.53;5055600;28;20103;-62
2022/02/22 06:48:15;;;;;;;10.05;2.13;;;;;;;12.40;47.05;101782.78;5055848;28;20040;-62
2022/02/22 06:50:42;;;;;;;6.00;2.13;;;;;;;12.42;47.51;101770.13;5047668;28;20549;-63
2022/02/22 06:53:07;;;;;;;9.60;1.50;;;;;;;12.43;46.57;101782.56;5018201;28;20088;-63
2022/02/22 06:55:33;;;;;;;12.75;2.28;;;;;;;12.45;47.23;101780.63;5016090;28;20104;-62
2022/02/22 06:58:06;;;;;;;15.07;1.65;;;;;;;12.46;47.49;101777.81;5016117;28;20109;-62
2022/02/22 07:00:35;;;;;;;12.35;1.90;;;;;;;12.47;47.12;101779.53;5020237;28;20423;-63
2022/02/22 07:03:02;;;;;;;6.68;1.63;;;;;;;12.49;46.47;101772.22;5035594;28;20120;-62
2022/02/22 07:05:27;;;;;;;7.45;1.73;;;;;;;12.50;47.19;101783.81;5033881;28;20025;-62
2022/02/22 07:07:53;;;;;;;8.13;1.52;;;;;;;12.50;47.04;101787.38;5015470;28;20033;-62
2022/02/22 07:10:18;;;;;;;10.40;2.65;;;;;;;12.53;46.36;101787.13;5014567;28;20423;-62
2022/02/22 07:12:44;;;;;;;11.80;1.60;;;;;;;12.55;47.30;101782.50;5015735;28;20087;-62
2022/02/22 07:15:10;;;;;;;7.43;1.85;;;;;;;12.54;47.29;101780.78;5016057;28;20030;-62
2022/02/22 07:17:49;;;;;;;8.50;1.58;;;;;;;12.59;47.02;101783.13;5015902;28;20034;-62
2022/02/22 07:20:15;;;;;;;9.35;2.25;;;;;;;12.63;47.01;101774.69;5015662;28;20040;-62
2022/02/22 07:22:41;;;;;;;10.35;1.70;;;;;;;12.66;46.76;101773.59;5015547;28;20511;-63
2022/02/22 07:25:08;;;;;;;9.48;1.77;;;;;;;12.65;46.82;101761.13;5015544;28;20026;-62
2022/02/22 07:27:33;;;;;;;9.38;2.47;;;;;;;12.69;47.52;101767.97;5014874;28;20498;-62
2022/02/22 07:29:59;;;;;;;6.97;1.15;;;;;;;12.69;46.83;101768.84;5014144;28;20103;-63
2022/02/22 07:32:24;;;;;;;10.95;1.80;;;;;;;12.76;47.49;101770.06;5015311;28;20041;-63
2022/02/22 07:34:49;;;;;;;10.60;1.77;;;;;;;12.76;47.74;101777.25;5015253;28;20134;-63
2022/02/22 07:37:15;;;;;;;5.65;1.75;;;;;;;12.79;47.09;101768.97;5015135;28;20030;-62
2022/02/22 07:39:40;;;;;;;9.00;2.33;;;;;;;12.82;47.64;101768.72;5015014;28;20033;-62
2022/02/22 07:42:06;;;;;;;10.45;2.00;;;;;;;12.80;47.18;101755.41;5015143;28;20033;-63
2022/02/22 07:44:31;;;;;;;9.43;1.63;;;;;;;12.94;47.84;101769.59;5022781;28;20049;-63
2022/02/22 07:46:56;;;;;;;9.75;2.25;;;;;;;13.07;47.40;101765.84;5035216;28;20105;-62
2022/02/22 07:49:22;;;;;;;10.75;2.00;;;;;;;13.28;47.06;101764.13;5035081;28;20033;-63
2022/02/22 07:51:47;;;;;;;14.45;2.80;;;;;;;13.50;46.28;101765.94;5034992;28;20025;-62
2022/02/22 07:54:12;;;;;;;12.38;2.60;;;;;;;13.70;46.47;101772.38;5035202;28;20033;-63
2022/02/22 07:56:38;;;;;;;12.07;2.53;;;;;;;13.95;46.48;101769.38;5034806;28;20030;-63
2022/02/22 07:59:03;;;;;;;5.53;2.30;;;;;;;14.11;46.08;101767.09;5033306;28;20061;-62
2022/02/22 08:01:29;;;;;;;11.88;3.05;;;;;;;14.18;46.25;101752.09;5034591;28;20029;-62
2022/02/22 08:03:54;;;;;;;12.05;2.50;;;;;;;14.25;47.00;101749.75;5034437;28;20033;-63
2022/02/22 08:06:19;;;;;;;12.73;3.22;;;;;;;14.33;46.41;101740.06;5034683;28;20030;-63
2022/02/22 08:08:45;;;;;;;11.63;2.67;;;;;;;14.36;47.38;101739.81;5034625;28;20028;-63
2022/02/22 08:11:10;;;;;;;10.70;2.65;;;;;;;14.38;47.52;101742.34;5034516;28;20048;-63
2022/02/22 08:13:35;;;;;;;11.13;3.40;;;;;;;14.40;47.77;101735.88;5033462;28;20116;-62
2022/02/22 08:16:01;;;;;;;16.95;2.90;;;;;;;14.35;47.50;101721.09;5034555;28;20108;-63
2022/02/22 08:18:27;;;;;;;15.52;2.95;;;;;;;14.38;47.66;101721.66;5034444;28;20063;-63
2022/02/22 08:20:52;;;;;;;11.40;3.22;;;;;;;14.33;47.73;101723.03;5034488;28;20104;-63
2022/02/22 08:23:18;;;;;;;9.63;2.78;;;;;;;14.36;47.89;101717.38;5034307;28;20072;-63
2022/02/22 08:25:43;;;;;;;14.38;3.10;;;;;;;14.37;46.77;101709.19;5033818;28;20036;-63
2022/02/22 08:28:10;;;;;;;15.15;3.08;;;;;;;14.72;46.85;101707.94;5034169;28;20018;-63
2022/02/22 08:30:38;;;;;;;11.50;3.58;;;;;;;14.87;46.30;101706.59;5033854;28;20029;-63
2022/02/22 08:33:05;;;;;;;17.25;2.45;;;;;;;14.95;46.13;101704.09;5032886;28;20036;-63
2022/02/22 08:35:30;;;;;;;12.68;2.85;;;;;;;15.09;46.42;101699.19;5033101;28;20138;-62
2022/02/22 08:37:56;;;;;;;17.60;3.25;;;;;;;15.21;46.89;101699.94;5036173;28;20025;-63
2022/02/22 08:40:21;;;;;;;17.75;3.65;;;;;;;15.22;46.70;101707.00;5044461;28;20024;-63
2022/02/22 08:42:46;;;;;;;13.35;4.03;;;;;;;15.29;46.73;101702.78;5053833;28;20032;-63
2022/02/22 08:45:12;;;;;;;15.68;3.53;;;;;;;15.25;45.79;101693.25;5053814;28;20056;-63
2022/02/22 08:47:37;;;;;;;14.43;3.60;;;;;;;15.50;45.77;101695.47;5053991;28;20108;-63
2022/02/22 08:50:03;;;;;;;17.85;3.20;;;;;;;15.60;46.33;101701.75;5053836;28;20048;-63
2022/02/22 08:52:29;;;;;;;11.38;3.08;;;;;;;15.80;45.82;101699.06;5054099;28;20107;-63
2022/02/22 08:54:55;;;;;;;16.92;3.90;;;;;;;15.79;44.85;101695.50;5052676;28;20029;-63
2022/02/22 08:57:21;;;;;;;21.63;4.35;;;;;;;15.80;45.76;101697.19;5053968;28;20382;-63
2022/02/22 08:59:46;;;;;;;23.80;3.85;;;;;;;15.82;45.91;101679.00;5053958;28;20175;-63
2022/02/22 09:02:13;;;;;;;11.38;3.65;;;;;;;15.81;46.30;101671.88;5052710;28;20463;-63
2022/02/22 09:04:39;;;;;;;15.18;3.92;;;;;;;15.88;46.33;101683.84;5054105;28;20498;-62
2022/02/22 09:07:04;;;;;;;17.55;3.30;;;;;;;15.90;45.26;101676.44;5052315;28;20079;-63
2022/02/22 09:09:30;;;;;;;16.90;3.92;;;;;;;15.93;46.37;101686.13;5053630;28;20138;-63
2022/02/22 09:11:56;;;;;;;12.70;3.10;;;;;;;15.97;46.53;101682.16;5053998;28;20036;-63
2022/02/22 09:14:22;;;;;;;22.15;4.55;;;;;;;15.91;45.26;101678.16;5054187;28;20043;-63
2022/02/22 09:16:47;;;;;;;20.08;4.28;;;;;;;15.89;46.40;101677.44;5053826;28;20037;-64
2022/02/22 09:19:13;;;;;;;21.75;3.53;;;;;;;15.88;45.41;101677.59;5052758;28;20514;-63
2022/02/22 09:21:38;;;;;;;17.38;3.50;;;;;;;15.87;45.92;101667.75;5053808;28;20505;-64
2022/02/22 09:24:04;;;;;;;19.65;4.10;;;;;;;15.91;45.71;101671.91;5053900;28;20049;-63
2022/02/22 09:26:29;;;;;;;17.92;3.92;;;;;;;15.98;46.26;101667.63;5053839;28;20037;-63
2022/02/22 09:28:56;;;;;;;20.10;3.67;;;;;;;16.12;45.66;101664.47;5046912;28;20026;-63
2022/02/22 09:31:22;;;;;;;18.75;3.72;;;;;;;16.32;45.61;101655.34;5036587;28;20512;-63
2022/02/22 09:33:47;;;;;;;14.82;3.15;;;;;;;16.53;45.53;101658.72;5033764;28;20049;-64
2022/02/22 09:36:13;;;;;;;9.57;2.33;;;;;;;16.63;45.07;101651.44;5032761;28;20036;-63
2022/02/22 09:38:39;;;;;;;17.33;3.05;;;;;;;16.78;45.28;101647.22;5034125;28;20022;-63
2022/02/22 09:41:04;;;;;;;18.10;2.78;;;;;;;16.90;44.50;101642.47;5034029;28;20021;-63
2022/02/22 09:43:32;;;;;;;17.77;2.67;;;;;;;16.98;44.84;101625.47;5034212;28;20112;-64
2022/02/22 09:45:57;;;;;;;22.70;2.80;;;;;;;17.00;44.45;101618.91;5033784;28;20063;-63
2022/02/22 09:48:24;;;;;;;15.32;3.92;;;;;;;17.05;43.75;101621.19;5036396;28;20111;-64
2022/02/22 09:50:49;;;;;;;12.60;2.45;;;;;;;17.18;43.62;101618.94;5055062;28;20036;-63
2022/02/22 09:53:15;;;;;;;15.68;2.17;;;;;;;17.21;44.08;101616.78;5057036;28;20025;-64
2022/02/22 09:55:40;;;;;;;13.90;2.55;;;;;;;17.16;44.52;101602.00;5057544;28;20017;-64
2022/02/22 09:58:06;;;;;;;15.63;3.17;;;;;;;17.09;43.75;101596.34;5056415;28;20386;-63
2022/02/22 10:00:32;;;;;;;20.52;3.38;;;;;;;17.01;45.50;101592.69;5057325;28;20100;-63
2022/02/22 10:02:58;;;;;;;12.80;2.00;;;;;;;16.89;44.58;101584.78;5050946;28;20025;-64
2022/02/22 10:05:24;;;;;;;17.63;2.55;;;;;;;16.82;45.33;101583.69;5037092;28;20112;-63
2022/02/22 10:08:00;;;;;;;12.73;2.78;;;;;;;16.81;44.20;101587.41;5037202;28;20108;-64
2022/02/22 10:10:36;;;;;;;18.92;3.20;;;;;;;16.71;44.43;101602.84;5035860;28;20025;-63
2022/02/22 10:13:02;;;;;;;16.33;2.10;;;;;;;16.57;45.16;101600.63;5036877;28;20043;-63
2022/02/22 10:15:27;;;;;;;12.52;2.30;;;;;;;16.49;44.86;101597.78;5037628;28;20438;-63
2022/02/22 10:17:53;;;;;;;18.55;2.92;;;;;;;16.43;44.84;101616.44;5037010;28;20057;-64
2022/02/22 10:20:19;;;;;;;13.40;3.75;;;;;;;16.35;44.33;101603.66;5036648;28;20430;-63
2022/02/22 10:22:53;;;;;;;16.80;2.72;;;;;;;16.32;44.08;101622.88;5036822;28;20027;-64
2022/02/22 10:25:18;;;;;;;17.95;2.60;;;;;;;16.26;44.51;101620.75;5048563;28;20029;-63
2022/02/22 10:27:52;;;;;;;11.73;2.90;;;;;;;16.19;45.24;101622.38;5056344;28;20103;-63
2022/02/22 10:30:39;;;;;;;18.10;3.58;;;;;;;16.16;44.30;101633.47;5055431;28;20103;-63
2022/02/22 10:33:28;;;;;;;9.65;3.33;;;;;;;16.08;44.69;101626.06;5056598;28;20070;-63
2022/02/22 10:36:04;;;;;;;20.60;2.28;;;;;;;16.13;45.82;101625.66;5047311;28;20112;-63
2022/02/22 10:38:31;;;;;;;11.30;2.58;;;;;;;16.18;44.33;101621.50;5055266;28;20067;-64
2022/02/22 10:41:01;;;;;;;10.20;2.03;;;;;;;16.18;44.41;101624.22;5055225;28;20032;-63
2022/02/22 10:43:36;;;;;;;18.67;2.70;;;;;;;16.22;44.47;101622.03;5055446;28;20032;-63
2022/02/22 10:46:04;;;;;;;10.52;2.80;;;;;;;16.22;45.43;101612.09;5055978;28;20045;-63
2022/02/22 10:48:41;;;;;;;16.73;3.03;;;;;;;16.19;44.42;101600.75;5056610;28;20490;-64
2022/02/22 10:51:16;;;;;;;19.80;3.63;;;;;;;16.29;44.51;101597.00;5056151;28;20056;-63
2022/02/22 10:53:47;;;;;;;15.55;2.85;;;;;;;16.32;45.52;101585.03;5055085;28;20017;-64
2022/02/22 10:56:17;;;;;;;11.07;2.42;;;;;;;16.43;43.91;101571.31;5056325;28;20031;-63
2022/02/22 10:58:44;;;;;;;13.63;2.55;;;;;;;16.65;44.52;101575.53;5056269;28;20112;-63
2022/02/22 11:01:15;;;;;;;23.98;3.65;;;;;;;16.77;45.08;101563.50;5054806;28;20031;-63
2022/02/22 11:03:41;;;;;;;11.23;2.67;;;;;;;16.82;44.79;101567.47;5055239;28;20021;-62
2022/02/22 11:06:08;;;;;;;13.70;2.35;;;;;;;16.77;44.46;101564.38;5055964;28;20029;-63
2022/02/22 11:08:34;;;;;;;11.20;2.40;;;;;;;16.76;44.33;101581.59;5054847;28;20055;-64
2022/02/22 11:11:05;;;;;;;18.08;2.95;;;;;;;16.76;45.34;101568.06;5054843;28;20063;-64
2022/02/22 11:13:31;;;;;;;20.88;3.55;;;;;;;16.79;44.31;101556.94;5054540;28;20475;-63
2022/02/22 11:16:10;;;;;;;19.88;2.80;;;;;;;16.78;45.08;101552.53;5055891;28;20024;-63
2022/02/22 11:18:48;;;;;;;16.65;3.00;;;;;;;16.86;44.60;101546.38;5056200;28;20032;-63
2022/02/22 11:21:14;;;;;;;20.90;5.20;;;;;;;16.84;44.47;101549.22;5055868;28;20025;-63
2022/02/22 11:23:40;;;;;;;12.80;2.58;;;;;;;16.86;45.13;101554.50;5055786;28;20035;-64
2022/02/22 11:26:07;;;;;;;23.23;4.50;;;;;;;16.87;44.81;101545.34;5055844;28;20386;-63
2022/02/22 11:28:41;;;;;;;14.88;4.20;;;;;;;16.95;45.22;101550.00;5055595;28;20027;-64
2022/02/22 11:31:13;;;;;;;11.38;3.90;;;;;;;17.08;45.51;101547.78;5055497;28;20480;-64
2022/02/22 11:33:47;;;;;;;26.55;4.70;;;;;;;17.01;44.09;101531.28;5054024;28;20094;-64
2022/02/22 11:36:27;;;;;;;23.33;2.97;;;;;;;17.02;44.79;101524.88;5055291;28;20031;-63
2022/02/22 11:38:53;;;;;;;17.88;3.25;;;;;;;16.97;44.28;101526.34;5037559;28;20028;-63
2022/02/22 11:41:21;;;;;;;20.17;3.65;;;;;;;16.93;44.86;101535.75;5054926;28;20039;-63
2022/02/22 11:43:53;;;;;;;15.13;2.97;;;;;;;16.91;45.45;101533.22;5055244;28;20056;-64
2022/02/22 11:46:18;;;;;;;16.48;3.13;;;;;;;16.78;45.44;101533.56;5055249;28;20112;-63
2022/02/22 11:48:44;;;;;;;15.57;3.17;;;;;;;16.78;44.87;101549.81;5055106;28;20056;-64
2022/02/22 11:51:11;;;;;;;12.05;2.75;;;;;;;16.72;46.38;101553.13;5055224;28;20394;-63
2022/02/22 11:53:38;;;;;;;19.77;3.67;;;;;;;16.65;45.07;101559.28;5037245;28;20433;-63
2022/02/22 11:56:04;;;;;;;29.65;3.42;;;;;;;16.59;46.17;101536.41;5055064;28;20017;-63
2022/02/22 11:58:35;;;;;;;17.48;3.30;;;;;;;16.56;45.50;101544.81;5055141;28;20066;-63
2022/02/22 12:01:04;;;;;;;15.40;3.38;;;;;;;16.53;46.25;101545.09;5055051;28;20501;-64
2022/02/22 12:03:43;;;;;;;17.27;2.67;;;;;;;16.52;47.14;101543.41;5054784;28;20032;-63
2022/02/22 12:06:09;;;;;;;12.98;2.58;;;;;;;16.49;46.79;101559.91;5054623;28;20375;-63
2022/02/22 12:08:41;;;;;;;16.60;3.25;;;;;;;16.46;46.56;101551.25;5054709;28;20039;-63
2022/02/22 12:11:14;;;;;;;43.85;9.13;;;;;;;16.43;47.05;101552.41;5055006;28;20033;-63
2022/02/22 12:13:45;;;;;;;25.90;5.85;;;;;;;16.39;47.57;101537.47;5054776;28;20041;-63
2022/02/22 12:16:17;;;;;;;19.65;3.70;;;;;;;16.34;46.61;101534.34;5054513;28;20482;-63
2022/02/22 12:18:44;;;;;;;14.60;2.80;;;;;;;16.30;46.68;101538.38;5054599;28;20562;-63
2022/02/22 12:21:09;;;;;;;16.50;3.67;;;;;;;16.33;46.68;101527.25;5053146;28;20475;-63
2022/02/22 12:23:37;;;;;;;19.27;3.55;;;;;;;16.35;46.48;101536.06;5054397;28;20036;-63
2022/02/22 12:26:14;;;;;;;24.40;3.40;;;;;;;16.32;46.21;101536.38;5054431;28;20501;-63
2022/02/22 12:28:53;;;;;;;17.02;3.35;;;;;;;16.34;46.30;101528.94;5054331;28;20025;-63
2022/02/22 12:31:28;;;;;;;13.98;3.22;;;;;;;16.38;46.46;101518.69;5054255;28;20020;-63
2022/02/22 12:34:01;;;;;;;25.40;3.85;;;;;;;16.45;47.63;101515.22;5054584;28;20033;-63
2022/02/22 12:36:27;;;;;;;;;;;;;;;16.38;47.78;101503.31;5055029;28;20471;-63
2022/02/22 12:38:56;;;;;;;16.98;2.80;;;;;;;16.37;47.66;101501.63;5053074;28;19931;-63
2022/02/22 12:41:22;;;;;;;18.40;3.10;;;;;;;16.40;48.33;101479.69;5054350;28;20036;-63
2022/02/22 12:43:49;;;;;;;13.57;2.05;;;;;;;16.38;48.37;101467.31;5052543;28;20025;-63
2022/02/22 12:46:16;;;;;;;10.75;2.30;;;;;;;16.37;47.51;101474.56;5052931;28;20029;-63
2022/02/22 12:48:42;;;;;;;15.55;2.53;;;;;;;16.34;47.51;101474.88;5053042;28;20029;-63
2022/02/22 12:51:08;;;;;;;12.07;2.15;;;;;;;16.33;47.59;101469.63;5054077;28;20021;-63